Time;durP1;ratioP1;P1;durP2;ratioP2;P2;SDS_P1;SDS_P2;PMS_P1;PMS_P2;Temp;Humidity;BMP_temperature;BMP_pressure;BME280_temperature;BME280_humidity;BME280_pressure;Samples;Min_cycle;Max_cycle;Signal;HPM_P1;HPM_P2
2021/07/05 00:06:05;;;;;;;0.27;0.17;;;22.20;99.90;;;;;;20826196;28;20389;-68
2021/07/05 00:16:10;;;;;;;0.27;0.20;;;22.10;99.90;;;;;;20825531;28;20217;-68
2021/07/05 00:26:14;;;;;;;0.37;0.37;;;22.20;99.90;;;;;;20825392;28;20222;-68
2021/07/05 00:36:19;;;;;;;0.23;0.10;;;22.20;99.90;;;;;;20877843;28;20634;-67
2021/07/05 00:46:23;;;;;;;0.30;0.30;;;22.10;99.90;;;;;;20906021;28;20213;-68
2021/07/05 00:56:28;;;;;;;0.33;0.20;;;22.40;99.90;;;;;;20905362;28;20287;-67
2021/07/05 01:06:32;;;;;;;0.40;0.27;;;22.40;99.90;;;;;;20904541;28;20694;-67
2021/07/05 01:16:37;;;;;;;0.67;0.53;;;22.50;99.90;;;;;;20903781;28;20304;-66
2021/07/05 01:26:42;;;;;;;0.20;0.00;;;22.40;99.90;;;;;;20902159;28;20193;-67
2021/07/05 01:36:46;;;;;;;0.93;0.40;;;22.30;99.90;;;;;;20884443;28;20757;-67
2021/07/05 01:46:51;;;;;;;2.40;0.47;;;22.20;99.90;;;;;;20901581;28;20276;-68
2021/07/05 01:56:55;;;;;;;0.30;0.23;;;22.10;99.90;;;;;;20896710;28;20223;-67
2021/07/05 02:07:13;;;;;;;0.47;0.47;;;22.00;99.90;;;;;;20901443;28;20249;-67
2021/07/05 02:17:17;;;;;;;0.67;0.17;;;21.90;99.90;;;;;;20875496;28;20231;-67
2021/07/05 02:27:22;;;;;;;0.77;0.77;;;22.00;99.90;;;;;;20916369;28;20276;-67
2021/07/05 02:37:26;;;;;;;0.20;0.10;;;22.10;99.90;;;;;;20915735;28;20229;-68
2021/07/05 02:47:31;;;;;;;0.20;0.20;;;22.00;99.90;;;;;;20914870;28;20208;-68
2021/07/05 02:57:35;;;;;;;1.27;0.27;;;22.10;99.90;;;;;;20914094;28;20721;-67
2021/07/05 03:07:40;;;;;;;0.30;0.23;;;22.20;99.90;;;;;;20914451;28;20316;-67
2021/07/05 03:17:45;;;;;;;0.43;0.43;;;22.20;99.90;;;;;;20912109;28;20235;-68
2021/07/05 03:27:51;;;;;;;0.30;0.17;;;22.30;99.90;;;;;;20911308;28;20272;-67
2021/07/05 03:37:56;;;;;;;0.30;0.20;;;22.20;99.90;;;;;;20911015;28;20229;-68
2021/07/05 03:48:02;;;;;;;0.40;0.30;;;22.10;99.90;;;;;;20909833;28;20595;-67
2021/07/05 03:58:08;;;;;;;0.20;0.10;;;22.00;99.90;;;;;;20875542;28;20388;-67
2021/07/05 04:08:13;;;;;;;0.20;0.20;;;21.80;99.90;;;;;;20826549;28;20695;-67
2021/07/05 04:18:18;;;;;;;0.50;0.20;;;21.90;99.90;;;;;;20825658;28;20242;-67
2021/07/05 04:28:23;;;;;;;0.87;0.30;;;21.80;99.90;;;;;;20823977;28;20677;-69
2021/07/05 04:38:27;;;;;;;0.53;0.47;;;21.80;99.90;;;;;;20893515;28;20308;-68
2021/07/05 04:48:32;;;;;;;2.53;0.40;;;21.70;99.90;;;;;;20904729;28;20244;-68
2021/07/05 04:58:37;;;;;;;1.50;0.70;;;21.70;99.90;;;;;;20903300;28;20782;-68
2021/07/05 05:08:51;;;;;;;0.97;0.53;;;21.70;99.90;;;;;;21055237;27;20550;-68
2021/07/05 05:18:55;;;;;;;0.63;0.63;;;22.00;99.90;;;;;;21054343;28;20669;-67
2021/07/05 05:29:00;;;;;;;0.70;0.50;;;22.30;99.90;;;;;;21047541;28;20220;-69
2021/07/05 05:39:04;;;;;;;0.80;0.40;;;22.80;99.90;;;;;;21052232;28;20235;-67
2021/07/05 05:49:10;;;;;;;1.00;0.80;;;23.20;99.90;;;;;;21049369;28;20481;-67
2021/07/05 05:59:14;;;;;;;0.80;0.77;;;23.60;99.90;;;;;;21050483;28;20228;-68
2021/07/05 06:09:19;;;;;;;0.43;0.40;;;23.90;99.90;;;;;;21050394;28;20283;-69
2021/07/05 06:19:22;;;;;;;1.63;1.05;;;24.30;99.90;;;;;;20997354;28;20327;-68
2021/07/05 06:29:27;;;;;;;0.38;0.35;;;24.90;99.90;;;;;;20990931;28;20196;-69
2021/07/05 06:39:31;;;;;;;1.17;0.30;;;25.10;99.90;;;;;;20988338;28;20251;-68
2021/07/05 06:49:36;;;;;;;0.45;0.35;;;25.40;99.90;;;;;;20989444;28;20201;-68
2021/07/05 06:59:40;;;;;;;0.28;0.20;;;25.50;99.90;;;;;;20985665;28;20315;-69
2021/07/05 07:09:45;;;;;;;0.68;0.50;;;25.80;99.90;;;;;;20986947;28;20606;-67
2021/07/05 07:19:49;;;;;;;0.32;0.20;;;25.80;99.90;;;;;;20984293;28;20605;-66
2021/07/05 07:29:54;;;;;;;0.63;0.40;;;26.20;99.90;;;;;;20904889;28;20215;-68
2021/07/05 07:39:59;;;;;;;0.40;0.40;;;26.10;99.90;;;;;;20985176;28;20722;-66
2021/07/05 07:50:05;;;;;;;0.70;0.55;;;25.90;99.90;;;;;;20984491;28;20258;-66
2021/07/05 08:00:11;;;;;;;0.63;0.35;;;26.10;99.90;;;;;;20978488;28;20635;-67
2021/07/05 08:10:23;;;;;;;0.73;0.45;;;26.40;99.90;;;;;;20928939;28;20280;-68
2021/07/05 08:20:27;;;;;;;4.25;0.88;;;26.30;99.90;;;;;;20935627;28;20255;-68
2021/07/05 08:30:32;;;;;;;1.73;1.63;;;26.30;99.90;;;;;;20982284;28;20288;-67
2021/07/05 08:40:36;;;;;;;0.47;0.43;;;26.70;99.90;;;;;;20980824;28;20216;-68
2021/07/05 08:50:42;;;;;;;1.02;0.60;;;26.90;99.90;;;;;;20980021;28;20197;-65
2021/07/05 09:00:46;;;;;;;0.40;0.40;;;26.60;99.90;;;;;;20978974;28;20367;-65
2021/07/05 09:10:53;;;;;;;0.45;0.45;;;26.80;99.90;;;;;;20979900;28;20559;-68
2021/07/05 09:20:59;;;;;;;0.73;0.50;;;27.10;99.90;;;;;;20979983;28;20224;-67
2021/07/05 09:31:04;;;;;;;0.63;0.40;;;27.40;99.90;;;;;;20980287;28;20200;-67
2021/07/05 09:41:21;;;;;;;0.52;0.50;;;26.90;99.90;;;;;;20978017;28;20225;-67
2021/07/05 09:51:26;;;;;;;1.05;0.30;;;26.70;99.90;;;;;;20986298;28;20280;-68
2021/07/05 10:01:41;;;;;;;8.27;0.50;;;27.20;99.90;;;;;;20993770;28;20697;-69
2021/07/05 10:11:50;;;;;;;4.75;1.20;;;27.00;99.90;;;;;;20991567;28;20192;-67
2021/07/05 10:21:53;;;;;;;0.85;0.77;;;27.20;99.90;;;;;;20991597;28;20639;-66
2021/07/05 10:31:59;;;;;;;9.45;0.57;;;27.40;99.90;;;;;;20991427;28;20284;-67
2021/07/05 10:42:03;;;;;;;0.30;0.20;;;27.80;99.90;;;;;;20989804;28;20328;-67
2021/07/05 10:52:12;;;;;;;1.40;0.70;;;27.80;99.90;;;;;;20988499;28;20280;-64
2021/07/05 11:02:49;;;;;;;0.63;0.52;;;28.70;99.90;;;;;;20987062;28;20238;-64
2021/07/05 11:13:09;;;;;;;0.43;0.43;;;28.70;99.90;;;;;;20985384;28;20219;-66
2021/07/05 11:23:13;;;;;;;1.05;0.40;;;28.80;99.90;;;;;;20984624;28;20665;-66
2021/07/05 11:33:29;;;;;;;1.73;0.55;;;29.10;99.90;;;;;;20984912;28;20220;-67
2021/07/05 11:43:51;;;;;;;0.93;0.47;;;29.30;99.90;;;;;;20983482;28;20220;-66
2021/07/05 11:53:59;;;;;;;1.77;1.02;;;30.00;99.90;;;;;;20982158;28;20216;-68
2021/07/05 12:04:03;;;;;;;0.90;0.65;;;30.60;99.90;;;;;;20983544;28;20327;-66
2021/07/05 12:14:12;;;;;;;0.60;0.50;;;31.00;99.90;;;;;;20980478;28;20200;-67
2021/07/05 12:24:20;;;;;;;0.88;0.77;;;31.90;99.90;;;;;;20981086;28;20221;-66
2021/07/05 12:34:41;;;;;;;0.70;0.70;;;32.60;99.90;;;;;;20982831;28;20223;-66
2021/07/05 12:44:44;;;;;;;0.80;0.70;;;33.00;99.90;;;;;;20982806;28;20699;-66
2021/07/05 12:54:49;;;;;;;0.77;0.50;;;33.30;99.90;;;;;;20979477;28;20233;-66
2021/07/05 13:05:09;;;;;;;0.38;0.38;;;33.60;99.90;;;;;;20980835;28;20282;-66
2021/07/05 13:15:16;;;;;;;1.20;0.77;;;34.10;99.90;;;;;;20980204;28;20283;-67
2021/07/05 13:25:20;;;;;;;2.85;0.47;;;34.20;99.90;;;;;;20985808;28;21090;-64
2021/07/05 13:35:30;;;;;;;0.40;0.40;;;34.60;99.90;;;;;;20994510;28;20729;-66
2021/07/05 13:45:42;;;;;;;1.27;0.82;;;35.20;99.90;;;;;;20994265;28;20735;-67
2021/07/05 13:55:55;;;;;;;1.50;0.88;;;34.90;99.90;;;;;;20993531;28;20242;-67
2021/07/05 14:06:00;;;;;;;1.13;0.90;;;34.50;99.90;;;;;;20993164;28;20232;-66
2021/07/05 14:16:08;;;;;;;0.85;0.65;;;34.80;99.90;;;;;;20992962;28;20215;-66
2021/07/05 14:26:13;;;;;;;3.50;1.30;;;35.20;99.90;;;;;;20991344;28;20602;-66
2021/07/05 14:36:18;;;;;;;0.68;0.63;;;35.30;99.90;;;;;;20990391;28;20193;-63
2021/07/05 14:46:28;;;;;;;1.08;0.90;;;35.80;99.90;;;;;;20989607;28;20235;-64
2021/07/05 14:56:33;;;;;;;0.70;0.70;;;36.00;99.90;;;;;;20988638;28;20217;-65
2021/07/05 15:06:38;;;;;;;2.40;0.85;;;36.00;99.90;;;;;;20987464;28;20255;-64
2021/07/05 15:16:47;;;;;;;3.45;2.28;;;36.50;99.90;;;;;;20984600;28;20645;-65
2021/07/05 15:26:51;;;;;;;2.28;2.08;;;36.60;99.90;;;;;;20983143;28;20706;-63
2021/07/05 15:36:56;;;;;;;2.53;2.33;;;36.50;99.90;;;;;;20984187;28;20185;-65
2021/07/05 15:47:00;;;;;;;0.77;0.65;;;36.30;99.90;;;;;;20984064;28;20745;-64
2021/07/05 15:57:05;;;;;;;1.50;1.13;;;36.00;99.90;;;;;;20982352;28;20548;-66
2021/07/05 16:07:09;;;;;;;2.65;0.90;;;35.80;99.90;;;;;;20981487;28;20264;-66
2021/07/05 16:17:14;;;;;;;1.20;1.10;;;36.00;99.90;;;;;;20980880;28;20283;-66
2021/07/05 16:27:18;;;;;;;3.13;2.03;;;36.00;99.90;;;;;;20978336;28;20235;-64
2021/07/05 16:37:23;;;;;;;2.53;1.70;;;35.60;99.90;;;;;;20979430;28;20283;-67
2021/07/05 16:47:27;;;;;;;1.30;1.02;;;34.60;99.90;;;;;;20980145;28;20311;-65
2021/07/05 16:57:32;;;;;;;2.65;1.48;;;34.80;99.90;;;;;;20978673;28;20196;-67
2021/07/05 17:07:36;;;;;;;1.73;1.60;;;35.00;99.90;;;;;;20952757;28;20267;-66
2021/07/05 17:17:41;;;;;;;2.78;2.15;;;35.20;99.90;;;;;;20966266;28;20193;-66
2021/07/05 17:27:46;;;;;;;2.20;1.45;;;35.00;99.90;;;;;;20976375;28;20255;-67
2021/07/05 17:37:52;;;;;;;3.95;1.40;;;34.90;99.90;;;;;;20921522;28;20618;-66
2021/07/05 17:47:56;;;;;;;3.60;1.35;;;34.40;99.90;;;;;;20894236;28;20320;-67
2021/07/05 17:58:01;;;;;;;2.53;1.70;;;33.70;99.90;;;;;;20895090;28;20193;-67
2021/07/05 18:08:06;;;;;;;3.88;1.70;;;33.70;99.90;;;;;;20893848;28;20244;-67
2021/07/05 18:18:15;;;;;;;2.80;2.17;;;32.90;99.90;;;;;;20910028;28;20300;-68
2021/07/05 18:28:19;;;;;;;2.22;1.58;;;32.30;99.90;;;;;;20909921;28;20221;-67
2021/07/05 18:38:26;;;;;;;2.08;1.75;;;32.30;99.90;;;;;;20916928;28;20198;-68
2021/07/05 18:48:30;;;;;;;2.90;2.25;;;31.10;99.90;;;;;;20907841;28;20300;-68
2021/07/05 18:58:36;;;;;;;3.42;2.40;;;30.10;99.90;;;;;;20936758;28;20658;-68
2021/07/05 19:08:39;;;;;;;4.80;2.83;;;28.90;99.90;;;;;;20942426;28;20237;-67
2021/07/05 19:18:45;;;;;;;4.18;1.48;;;27.40;99.90;;;;;;20940129;28;20243;-67
2021/07/05 19:28:49;;;;;;;1.85;1.60;;;26.70;99.90;;;;;;20985427;28;20231;-67
2021/07/05 19:38:56;;;;;;;2.75;1.90;;;26.60;99.90;;;;;;20982936;28;20197;-68
2021/07/05 19:49:00;;;;;;;1.90;1.48;;;26.40;99.90;;;;;;20982146;28;20216;-68
2021/07/05 19:59:06;;;;;;;1.20;1.10;;;26.30;99.90;;;;;;21013971;28;20234;-68
2021/07/05 20:09:10;;;;;;;4.43;2.45;;;26.20;99.90;;;;;;20981814;28;20270;-68
2021/07/05 20:19:15;;;;;;;3.90;1.92;;;26.00;99.90;;;;;;20979899;28;20301;-67
2021/07/05 20:29:19;;;;;;;1.48;1.05;;;26.20;99.90;;;;;;20981424;28;20232;-68
2021/07/05 20:39:24;;;;;;;3.80;1.50;;;26.00;99.90;;;;;;20979431;28;20276;-67
2021/07/05 20:49:28;;;;;;;4.47;1.10;;;25.80;99.90;;;;;;21012670;28;20224;-67
2021/07/05 20:59:34;;;;;;;2.38;1.45;;;26.00;99.90;;;;;;20979817;28;20248;-68
2021/07/05 21:09:38;;;;;;;6.68;1.50;;;25.90;99.90;;;;;;20978069;28;20225;-68
2021/07/05 21:19:43;;;;;;;3.35;1.90;;;25.90;99.90;;;;;;20977241;28;20280;-68
2021/07/05 21:29:47;;;;;;;4.07;1.20;;;25.70;99.90;;;;;;21012177;28;20224;-69
2021/07/05 21:39:54;;;;;;;2.10;1.90;;;25.70;99.90;;;;;;20978337;28;20193;-69
2021/07/05 21:49:58;;;;;;;4.25;1.33;;;25.70;99.90;;;;;;20995636;28;20769;-69
2021/07/05 22:00:10;;;;;;;3.13;1.45;;;25.50;99.90;;;;;;20996818;28;20685;-68
2021/07/05 22:10:16;;;;;;;1.70;1.35;;;25.00;99.90;;;;;;20994235;28;20254;-68
2021/07/05 22:20:24;;;;;;;1.35;1.25;;;24.70;99.90;;;;;;20995404;28;20732;-67
2021/07/05 22:30:29;;;;;;;1.30;1.17;;;24.50;99.90;;;;;;21028074;28;20217;-67
2021/07/05 22:40:34;;;;;;;3.17;1.88;;;24.50;99.90;;;;;;20992027;28;20193;-67
2021/07/05 22:50:38;;;;;;;2.50;0.70;;;24.70;99.90;;;;;;20993716;28;20274;-67
2021/07/05 23:00:43;;;;;;;4.28;1.75;;;25.10;99.90;;;;;;20990377;28;20252;-67
2021/07/05 23:10:47;;;;;;;1.00;0.98;;;25.10;99.90;;;;;;20973943;28;20248;-67
2021/07/05 23:20:54;;;;;;;2.28;1.85;;;24.30;99.90;;;;;;20991333;28;20622;-67
2021/07/05 23:30:58;;;;;;;1.40;1.30;;;24.40;99.90;;;;;;20989658;28;20315;-67
2021/07/05 23:41:03;;;;;;;1.75;1.50;;;24.70;99.90;;;;;;20989575;28;20197;-67
2021/07/05 23:51:06;;;;;;;0.68;0.68;;;25.10;99.90;;;;;;20988436;28;20587;-67
